| time (UTC) | temp F | wind direction | speed MPH | gust MPH | rain 1hr in | rain 24hr in | rain mn in | humidity % | barometer mb |
| 20260831145306 | 72 | 0 | 0.0 | 0.0 | 0.00 | 0.36 | 0.34 | 97 | 1012.7 |
| 20260831144803 | 72 | 0 | 0.0 | 0.0 | 0.02 | 0.36 | 0.34 | 97 | 1012.7 |
| 20260831144303 | 72 | 0 | 0.0 | 0.0 | 0.04 | 0.36 | 0.34 | 98 | 1012.8 |
| 20260831143803 | 72 | 0 | 0.0 | 0.0 | 0.04 | 0.36 | 0.34 | 98 | 1012.8 |
| 20260831143303 | 72 | 0 | 0.0 | 0.0 | 0.04 | 0.36 | 0.34 | 98 | 1012.7 |
| 20260831142803 | 71 | 0 | 0.0 | 0.0 | 0.04 | 0.36 | 0.34 | 97 | 1012.8 |
| 20260831142305 | 71 | 0 | 0.0 | 0.0 | 0.05 | 0.36 | 0.34 | 97 | 1012.8 |
| 20260831141803 | 71 | 0 | 0.0 | 0.0 | 0.05 | 0.36 | 0.34 | 97 | 1012.8 |
| 20260831141303 | 71 | 0 | 0.0 | 0.0 | 0.05 | 0.36 | 0.34 | 97 | 1012.9 |
| 20260831140803 | 71 | 0 | 0.0 | 0.0 | 0.05 | 0.36 | 0.34 | 97 | 1012.8 |
| 20260831140303 | 71 | 0 | 0.0 | 0.0 | 0.06 | 0.36 | 0.34 | 97 | 1012.9 |
| 20260831135803 | 71 | 0 | 0.0 | 0.0 | 0.06 | 0.36 | 0.34 | 96 | 1013.0 |
| 20260831135306 | 71 | 0 | 0.0 | 0.0 | 0.06 | 0.36 | 0.34 | 96 | 1013.0 |
| 20260831134803 | 71 | 0 | 0.0 | 0.0 | 0.06 | 0.34 | 0.32 | 96 | 1013.3 |
| 20260831134303 | 71 | 0 | 0.0 | 0.0 | 0.07 | 0.32 | 0.30 | 96 | 1013.5 |
| 20260831133803 | 71 | 0 | 0.0 | 0.0 | 0.08 | 0.32 | 0.30 | 96 | 1013.8 |
| 20260831133303 | 71 | 0 | 0.0 | 0.0 | 0.10 | 0.32 | 0.30 | 96 | 1013.7 |
| 20260831132803 | 71 | 0 | 0.0 | 0.0 | 0.12 | 0.32 | 0.30 | 96 | 1013.7 |
| 20260831132306 | 71 | 0 | 0.0 | 0.0 | 0.11 | 0.31 | 0.29 | 96 | 1013.9 |
| 20260831131803 | 71 | 0 | 0.0 | 0.0 | 0.11 | 0.31 | 0.29 | 96 | 1014.0 |
| 20260831131303 | 71 | 0 | 0.0 | 0.0 | 0.13 | 0.31 | 0.29 | 95 | 1013.7 |
| 20260831130803 | 71 | 0 | 0.0 | 0.0 | 0.23 | 0.31 | 0.29 | 95 | 1013.5 |
| 20260831130303 | 71 | 0 | 0.0 | 0.0 | 0.22 | 0.31 | 0.28 | 95 | 1013.2 |
| 20260831125803 | 71 | 0 | 0.0 | 0.0 | 0.25 | 0.32 | 0.28 | 95 | 1013.4 |
| 20260831125306 | 71 | 0 | 0.0 | 0.0 | 0.26 | 0.32 | 0.28 | 95 | 1013.7 |
| 20260831124803 | 71 | 0 | 0.0 | 0.0 | 0.24 | 0.30 | 0.26 | 95 | 1013.6 |
| 20260831124303 | 71 | 0 | 0.0 | 0.0 | 0.21 | 0.27 | 0.23 | 95 | 1013.4 |
| 20260831123803 | 71 | 0 | 0.0 | 0.0 | 0.22 | 0.26 | 0.22 | 94 | 1013.7 |
| 20260831123303 | 71 | 0 | 0.0 | 0.0 | 0.20 | 0.24 | 0.20 | 94 | 1013.4 |
| 20260831122803 | 71 | 0 | 0.0 | 0.0 | 0.18 | 0.22 | 0.18 | 93 | 1013.5 |
| 20260831122305 | 71 | 0 | 0.0 | 0.0 | 0.18 | 0.22 | 0.18 | 93 | 1013.2 |
| 20260831121803 | 72 | 0 | 0.0 | 0.0 | 0.18 | 0.22 | 0.18 | 92 | 1013.3 |
| 20260831121303 | 72 | 0 | 0.0 | 0.0 | 0.16 | 0.20 | 0.16 | 92 | 1013.2 |
| 20260831120803 | 72 | 0 | 0.0 | 0.0 | 0.10 | 0.14 | 0.10 | 91 | 1013.6 |
| 20260831120303 | 72 | 0 | 0.0 | 0.0 | 0.06 | 0.10 | 0.06 | 90 | 1013.8 |
| 20260831115803 | 73 | 0 | 0.0 | 0.0 | 0.03 | 0.07 | 0.03 | 90 | 1013.7 |
| 20260831115306 | 73 | 0 | 0.0 | 0.0 | 0.02 | 0.06 | 0.02 | 89 | 1013.4 |
| 20260831114803 | 73 | 0 | 0.0 | 0.0 | 0.02 | 0.06 | 0.02 | 88 | 1013.2 |
| 20260831114303 | 74 | 0 | 0.0 | 0.0 | 0.02 | 0.06 | 0.02 | 87 | 1013.3 |
| 20260831113803 | 74 | 0 | 0.0 | 0.0 | 0.02 | 0.06 | 0.02 | 86 | 1013.2 |
| 20260831113303 | 74 | 0 | 0.0 | 0.0 | 0.00 | 0.04 | 0.00 | 85 | 1013.3 |
| 20260831112803 | 74 | 0 | 0.0 | 0.0 | 0.00 | 0.04 | 0.00 | 85 | 1013.0 |
| 20260831112306 | 74 | 0 | 0.0 | 0.0 | 0.00 | 0.04 | 0.00 | 84 | 1012.7 |
| 20260831111803 | 74 | 0 | 0.0 | 0.0 | 0.00 | 0.04 | 0.00 | 84 | 1012.3 |
| 20260831111303 | 74 | 0 | 0.0 | 0.0 | 0.00 | 0.04 | 0.00 | 84 | 1012.0 |
| 20260831110803 | 74 | 0 | 0.0 | 0.0 | 0.00 | 0.04 | 0.00 | 84 | 1011.7 |
| 20260831110303 | 74 | 0 | 0.0 | 0.0 | 0.00 | 0.04 | 0.00 | 84 | 1011.6 |
| 20260831105803 | 74 | 0 | 0.0 | 0.0 | 0.00 | 0.04 | 0.00 | 84 | 1011.4 |
| 20260831105306 | 74 | 0 | 0.0 | 0.0 | 0.00 | 0.04 | 0.00 | 84 | 1011.3 |
| 20260831104803 | 74 | 0 | 0.0 | 0.0 | 0.00 | 0.04 | 0.00 | 84 | 1011.3 |
| 20260831104303 | 74 | 0 | 0.0 | 0.0 | 0.00 | 0.04 | 0.00 | 85 | 1011.3 |
| 20260831103803 | 74 | 0 | 0.0 | 0.0 | 0.00 | 0.04 | 0.00 | 85 | 1011.4 |
| 20260831103303 | 73 | 0 | 0.0 | 0.0 | 0.00 | 0.04 | 0.00 | 85 | 1011.4 |
| 20260831102803 | 74 | 0 | 0.0 | 0.0 | 0.00 | 0.04 | 0.00 | 85 | 1011.4 |
| 20260831102305 | 73 | 0 | 0.0 | 0.0 | 0.00 | 0.04 | 0.00 | 85 | 1011.3 |
| 20260831101803 | 73 | 0 | 0.0 | 0.0 | 0.00 | 0.04 | 0.00 | 86 | 1011.3 |
| 20260831101303 | 73 | 0 | 0.0 | 0.0 | 0.00 | 0.04 | 0.00 | 86 | 1011.5 |
| 20260831100803 | 73 | 0 | 0.0 | 0.0 | 0.00 | 0.04 | 0.00 | 86 | 1011.4 |
| 20260831100303 | 73 | 0 | 0.0 | 0.0 | 0.00 | 0.04 | 0.00 | 86 | 1011.3 |
| 20260831095803 | 73 | 0 | 0.0 | 0.0 | 0.00 | 0.04 | 0.00 | 86 | 1011.3 |
| 20260831095305 | 73 | 0 | 0.0 | 0.0 | 0.00 | 0.04 | 0.00 | 87 | 1011.4 |
| 20260831094803 | 73 | 0 | 0.0 | 0.0 | 0.00 | 0.04 | 0.00 | 87 | 1011.4 |
| 20260831094303 | 73 | 0 | 0.0 | 0.0 | 0.00 | 0.04 | 0.00 | 87 | 1011.3 |
| 20260831093803 | 73 | 0 | 0.0 | 0.0 | 0.00 | 0.04 | 0.00 | 87 | 1011.4 |
| 20260831093303 | 73 | 0 | 0.0 | 0.0 | 0.00 | 0.04 | 0.00 | 88 | 1011.4 |
| 20260831092803 | 73 | 0 | 0.0 | 0.0 | 0.00 | 0.04 | 0.00 | 88 | 1011.6 |
| 20260831092306 | 73 | 0 | 0.0 | 0.0 | 0.00 | 0.04 | 0.00 | 89 | 1011.7 |
| 20260831091803 | 73 | 0 | 0.0 | 0.0 | 0.00 | 0.04 | 0.00 | 89 | 1011.7 |
| 20260831091303 | 73 | 0 | 0.0 | 0.0 | 0.00 | 0.04 | 0.00 | 89 | 1011.7 |
| 20260831090803 | 73 | 0 | 0.0 | 0.0 | 0.00 | 0.04 | 0.00 | 90 | 1011.7 |
| 20260831090303 | 73 | 0 | 0.0 | 0.0 | 0.00 | 0.04 | 0.00 | 90 | 1011.7 |
| 20260831085803 | 72 | 0 | 0.0 | 0.0 | 0.00 | 0.04 | 0.00 | 90 | 1011.7 |
| 20260831085306 | 72 | 0 | 0.0 | 0.0 | 0.00 | 0.04 | 0.00 | 91 | 1011.7 |
| 20260831084803 | 72 | 0 | 0.0 | 0.0 | 0.00 | 0.04 | 0.00 | 91 | 1011.8 |
| 20260831084303 | 72 | 0 | 0.0 | 0.0 | 0.00 | 0.04 | 0.00 | 92 | 1011.8 |
| 20260831083803 | 72 | 0 | 0.0 | 0.0 | 0.00 | 0.04 | 0.00 | 92 | 1011.9 |
| 20260831083303 | 72 | 0 | 0.0 | 0.0 | 0.00 | 0.04 | 0.00 | 93 | 1011.8 |
| 20260831082803 | 72 | 0 | 0.0 | 0.0 | 0.00 | 0.04 | 0.00 | 93 | 1011.9 |
| 20260831082306 | 72 | 0 | 0.0 | 0.0 | 0.00 | 0.04 | 0.00 | 94 | 1011.8 |
| 20260831081803 | 72 | 0 | 0.0 | 0.0 | 0.00 | 0.04 | 0.00 | 94 | 1011.8 |
| 20260831081303 | 72 | 0 | 0.0 | 0.0 | 0.00 | 0.04 | 0.00 | 94 | 1011.8 |
| 20260831080803 | 72 | 0 | 0.0 | 0.0 | 0.00 | 0.04 | 0.00 | 94 | 1011.9 |
| 20260831080303 | 72 | 0 | 0.0 | 0.0 | 0.00 | 0.04 | 0.00 | 95 | 1011.8 |
| 20260831075803 | 72 | 0 | 0.0 | 0.0 | 0.00 | 0.04 | 0.00 | 95 | 1011.8 |
| 20260831075306 | 72 | 0 | 0.0 | 0.0 | 0.00 | 0.04 | 0.00 | 95 | 1011.9 |
| 20260831074803 | 72 | 0 | 0.0 | 0.0 | 0.00 | 0.04 | 0.00 | 95 | 1012.0 |
| 20260831074303 | 72 | 0 | 0.0 | 0.0 | 0.00 | 0.04 | 0.00 | 95 | 1012.1 |
| 20260831073803 | 72 | 0 | 0.0 | 0.0 | 0.00 | 0.04 | 0.00 | 95 | 1012.2 |
| 20260831073303 | 72 | 0 | 0.0 | 0.0 | 0.00 | 0.04 | 0.00 | 95 | 1012.3 |
| 20260831072803 | 72 | 0 | 0.0 | 0.0 | 0.00 | 0.04 | 0.00 | 96 | 1012.2 |
| 20260831072306 | 72 | 0 | 0.0 | 0.0 | 0.00 | 0.04 | 0.00 | 96 | 1012.2 |
| 20260831071803 | 72 | 0 | 0.0 | 0.0 | 0.00 | 0.04 | 0.00 | 96 | 1012.2 |
| 20260831071303 | 72 | 0 | 0.0 | 0.0 | 0.00 | 0.04 | 0.00 | 96 | 1012.2 |
| 20260831070803 | 72 | 0 | 0.0 | 0.0 | 0.00 | 0.04 | 0.00 | 96 | 1012.2 |
| 20260831070303 | 72 | 0 | 0.0 | 0.0 | 0.00 | 0.04 | 0.00 | 96 | 1012.2 |
| 20260831065803 | 72 | 0 | 0.0 | 0.0 | 0.00 | 0.04 | 0.00 | 96 | 1012.2 |
| 20260831065306 | 72 | 0 | 0.0 | 0.0 | 0.00 | 0.04 | 0.00 | 96 | 1012.2 |
| 20260831064803 | 72 | 0 | 0.0 | 0.0 | 0.00 | 0.04 | 0.00 | 96 | 1012.3 |
| 20260831064303 | 72 | 0 | 0.0 | 0.0 | 0.00 | 0.04 | 0.00 | 97 | 1012.5 |
| 20260831063803 | 72 | 0 | 0.0 | 0.0 | 0.00 | 0.04 | 0.00 | 97 | 1012.4 |
| 20260831063303 | 72 | 0 | 0.0 | 0.0 | 0.00 | 0.04 | 0.00 | 97 | 1012.4 |
| 20260831062803 | 72 | 0 | 0.0 | 0.0 | 0.00 | 0.04 | 0.00 | 97 | 1012.4 |
| 20260831062305 | 72 | 0 | 0.0 | 0.0 | 0.00 | 0.04 | 0.00 | 97 | 1012.3 |
| 20260831061803 | 72 | 0 | 0.0 | 0.0 | 0.00 | 0.04 | 0.00 | 97 | 1012.3 |
| 20260831061303 | 72 | 0 | 0.0 | 0.0 | 0.00 | 0.04 | 0.00 | 97 | 1012.3 |
| 20260831060803 | 72 | 0 | 0.0 | 0.0 | 0.00 | 0.04 | 0.00 | 97 | 1012.3 |
| 20260831060303 | 72 | 0 | 0.0 | 0.0 | 0.00 | 0.04 | 0.00 | 97 | 1012.4 |
| 20260831055803 | 72 | 0 | 0.0 | 0.0 | 0.00 | 0.04 | 0.00 | 97 | 1012.5 |
| 20260831055306 | 72 | 0 | 0.0 | 0.0 | 0.00 | 0.04 | 0.00 | 97 | 1012.5 |
| 20260831054803 | 72 | 0 | 0.0 | 0.0 | 0.00 | 0.04 | 0.00 | 97 | 1012.4 |
| 20260831054303 | 72 | 0 | 0.0 | 0.0 | 0.00 | 0.04 | 0.00 | 97 | 1012.5 |
| 20260831053803 | 72 | 0 | 0.0 | 0.0 | 0.00 | 0.04 | 0.00 | 97 | 1012.5 |
| 20260831053303 | 72 | 0 | 0.0 | 0.0 | 0.00 | 0.04 | 0.00 | 97 | 1012.4 |
| 20260831052803 | 73 | 0 | 0.0 | 0.0 | 0.00 | 0.04 | 0.00 | 97 | 1012.3 |
| 20260831052306 | 73 | 0 | 0.0 | 0.0 | 0.00 | 0.04 | 0.00 | 97 | 1012.3 |
| 20260831051803 | 73 | 0 | 0.0 | 0.0 | 0.00 | 0.04 | 0.00 | 97 | 1012.3 |
| 20260831051303 | 73 | 0 | 0.0 | 0.0 | 0.00 | 0.04 | 0.00 | 97 | 1012.3 |
| 20260831050803 | 73 | 0 | 0.0 | 0.0 | 0.00 | 0.04 | 0.00 | 97 | 1012.3 |
| 20260831050303 | 73 | 0 | 0.0 | 0.0 | 0.00 | 0.04 | 0.00 | 97 | 1012.4 |
| 20260831045803 | 73 | 0 | 0.0 | 0.0 | 0.00 | 0.04 | 0.00 | 97 | 1012.3 |
| 20260831045306 | 73 | 0 | 0.0 | 0.0 | 0.00 | 0.04 | 0.00 | 97 | 1012.4 |
| 20260831044803 | 73 | 0 | 0.0 | 0.0 | 0.00 | 0.04 | 0.00 | 97 | 1012.6 |
| 20260831044303 | 73 | 0 | 0.0 | 0.0 | 0.00 | 0.04 | 0.00 | 97 | 1012.7 |
| 20260831043803 | 73 | 0 | 0.0 | 0.0 | 0.00 | 0.04 | 0.00 | 97 | 1012.8 |
| 20260831043303 | 73 | 0 | 0.0 | 0.0 | 0.00 | 0.04 | 0.00 | 97 | 1012.8 |
| 20260831042803 | 73 | 0 | 0.0 | 0.0 | 0.00 | 0.04 | 0.00 | 97 | 1012.6 |
| 20260831042306 | 74 | 0 | 0.0 | 0.0 | 0.00 | 0.04 | 0.00 | 97 | 1012.5 |
| 20260831041803 | 74 | 0 | 0.0 | 0.0 | 0.00 | 0.04 | 0.00 | 97 | 1012.3 |
| 20260831040803 | 74 | 0 | 0.0 | 0.0 | 0.00 | 0.04 | 0.00 | 97 | 1012.5 |
| 20260831040303 | 74 | 0 | 0.0 | 0.0 | 0.00 | 0.04 | 0.00 | 97 | 1012.6 |
| 20260831035803 | 74 | 0 | 0.0 | 0.0 | 0.00 | 0.04 | 0.00 | 97 | 1012.6 |
| 20260831035306 | 74 | 0 | 0.0 | 0.0 | 0.00 | 0.04 | 0.00 | 97 | 1012.4 |
| 20260831034803 | 74 | 0 | 0.0 | 0.0 | 0.00 | 0.04 | 0.00 | 97 | 1012.4 |
| 20260831034303 | 74 | 0 | 0.0 | 0.0 | 0.00 | 0.04 | 0.00 | 97 | 1012.7 |
| 20260831033803 | 74 | 0 | 0.0 | 0.0 | 0.00 | 0.04 | 0.00 | 97 | 1012.8 |
| 20260831033303 | 74 | 0 | 0.0 | 0.0 | 0.00 | 0.04 | 0.00 | 97 | 1012.9 |
| 20260831032803 | 74 | 0 | 0.0 | 0.0 | 0.00 | 0.04 | 0.00 | 97 | 1013.2 |
| 20260831032306 | 74 | 0 | 0.0 | 0.0 | 0.00 | 0.04 | 0.00 | 97 | 1013.3 |
| 20260831031803 | 74 | 0 | 0.0 | 0.0 | 0.00 | 0.04 | 0.00 | 97 | 1013.1 |
| 20260831031303 | 74 | 0 | 0.0 | 0.0 | 0.00 | 0.04 | 0.00 | 97 | 1013.1 |
| 20260831030803 | 74 | 0 | 0.0 | 0.0 | 0.00 | 0.04 | 0.00 | 97 | 1013.2 |
| 20260831030303 | 74 | 0 | 0.0 | 0.0 | 0.00 | 0.04 | 0.00 | 97 | 1013.3 |
| 20260831025803 | 74 | 0 | 0.0 | 0.0 | 0.00 | 0.04 | 0.00 | 97 | 1013.3 |
| 20260831025306 | 74 | 0 | 0.0 | 0.0 | 0.00 | 0.04 | 0.00 | 96 | 1013.1 |
| 20260831024803 | 74 | 0 | 0.0 | 0.0 | 0.00 | 0.04 | 0.00 | 97 | 1013.2 |
| 20260831024303 | 74 | 0 | 0.0 | 0.0 | 0.00 | 0.04 | 0.00 | 97 | 1013.2 |
| 20260831023803 | 74 | 0 | 0.0 | 0.0 | 0.00 | 0.04 | 0.00 | 97 | 1013.5 |
| 20260831023303 | 74 | 0 | 0.0 | 0.0 | 0.00 | 0.04 | 0.00 | 97 | 1013.5 |
| 20260831022803 | 74 | 0 | 0.0 | 0.0 | 0.00 | 0.04 | 0.00 | 97 | 1013.5 |
| 20260831022306 | 74 | 0 | 0.0 | 0.0 | 0.00 | 0.04 | 0.00 | 97 | 1013.4 |
| 20260831021803 | 74 | 0 | 0.0 | 0.0 | 0.00 | 0.04 | 0.04 | 96 | 1012.9 |
| 20260831021303 | 74 | 0 | 0.0 | 0.0 | 0.00 | 0.04 | 0.04 | 96 | 1013.1 |
| 20260831020803 | 74 | 0 | 0.0 | 0.0 | 0.00 | 0.04 | 0.04 | 96 | 1013.2 |
| 20260831020303 | 74 | 0 | 0.0 | 0.0 | 0.00 | 0.04 | 0.04 | 96 | 1012.9 |
| 20260831015803 | 74 | 0 | 0.0 | 0.0 | 0.00 | 0.04 | 0.04 | 96 | 1012.9 |
| 20260831015305 | 74 | 0 | 0.0 | 0.0 | 0.00 | 0.04 | 0.04 | 96 | 1013.2 |
| 20260831014803 | 74 | 0 | 0.0 | 0.0 | 0.00 | 0.04 | 0.04 | 96 | 1013.3 |
| 20260831014303 | 74 | 0 | 0.0 | 0.0 | 0.00 | 0.04 | 0.04 | 96 | 1013.3 |
| 20260831013803 | 74 | 0 | 0.0 | 0.0 | 0.00 | 0.04 | 0.04 | 96 | 1013.3 |
| 20260831013303 | 74 | 0 | 0.0 | 0.0 | 0.00 | 0.04 | 0.04 | 96 | 1013.2 |
| 20260831012803 | 74 | 0 | 0.0 | 0.0 | 0.00 | 0.04 | 0.04 | 96 | 1013.3 |
| 20260831012305 | 74 | 0 | 0.0 | 0.0 | 0.00 | 0.04 | 0.04 | 95 | 1013.1 |
| 20260831011803 | 74 | 0 | 0.0 | 0.0 | 0.00 | 0.04 | 0.04 | 95 | 1013.0 |
| 20260831011303 | 74 | 0 | 0.0 | 0.0 | 0.00 | 0.04 | 0.04 | 95 | 1012.9 |
| 20260831010803 | 74 | 0 | 0.0 | 0.0 | 0.00 | 0.04 | 0.04 | 95 | 1012.9 |
| 20260831010303 | 74 | 0 | 0.0 | 0.0 | 0.00 | 0.04 | 0.04 | 95 | 1012.9 |
| 20260831005803 | 74 | 0 | 0.0 | 0.0 | 0.00 | 0.04 | 0.04 | 95 | 1012.7 |
| 20260831005306 | 74 | 0 | 0.0 | 0.0 | 0.01 | 0.04 | 0.04 | 95 | 1012.8 |
| 20260831004803 | 74 | 0 | 0.0 | 0.0 | 0.01 | 0.04 | 0.04 | 95 | 1012.7 |
| 20260831004303 | 74 | 0 | 0.0 | 0.0 | 0.01 | 0.04 | 0.04 | 95 | 1012.8 |
| 20260831003803 | 74 | 0 | 0.0 | 0.0 | 0.02 | 0.04 | 0.04 | 94 | 1012.8 |
| 20260831003303 | 74 | 0 | 0.0 | 0.0 | 0.02 | 0.04 | 0.04 | 94 | 1012.6 |
| 20260831002803 | 74 | 0 | 0.0 | 0.0 | 0.02 | 0.04 | 0.04 | 94 | 1012.5 |
| 20260831002306 | 75 | 0 | 0.0 | 0.0 | 0.02 | 0.04 | 0.04 | 94 | 1012.5 |
| 20260831001803 | 75 | 0 | 0.0 | 0.0 | 0.02 | 0.04 | 0.04 | 94 | 1012.5 |
| 20260831001303 | 75 | 0 | 0.0 | 0.0 | 0.02 | 0.04 | 0.04 | 93 | 1012.3 |
| 20260831000803 | 75 | 0 | 0.0 | 0.0 | 0.02 | 0.04 | 0.04 | 93 | 1012.4 |
| 20260831000303 | 75 | 0 | 0.0 | 0.0 | 0.02 | 0.04 | 0.04 | 93 | 1013.0 |
| 20260830235803 | 75 | 0 | 0.0 | 0.0 | 0.02 | 0.04 | 0.04 | 92 | 1013.2 |
| 20260830235305 | 75 | 0 | 0.0 | 0.0 | 0.01 | 0.03 | 0.03 | 92 | 1013.2 |
| 20260830234803 | 75 | 0 | 0.0 | 0.0 | 0.01 | 0.03 | 0.03 | 92 | 1013.1 |
| 20260830234303 | 75 | 0 | 0.0 | 0.0 | 0.01 | 0.03 | 0.03 | 91 | 1013.0 |
| 20260830233803 | 75 | 0 | 0.0 | 0.0 | 0.01 | 0.03 | 0.03 | 91 | 1013.0 |
| 20260830233303 | 75 | 0 | 0.0 | 0.0 | 0.00 | 0.02 | 0.02 | 90 | 1012.9 |
| 20260830232803 | 75 | 0 | 0.0 | 0.0 | 0.00 | 0.02 | 0.02 | 90 | 1013.1 |
| 20260830232305 | 76 | 0 | 0.0 | 0.0 | 0.00 | 0.02 | 0.02 | 90 | 1013.3 |
| 20260830231803 | 76 | 0 | 0.0 | 0.0 | 0.00 | 0.02 | 0.02 | 90 | 1013.4 |
| 20260830231303 | 76 | 0 | 0.0 | 0.0 | 0.00 | 0.02 | 0.02 | 90 | 1013.5 |
| 20260830230803 | 76 | 0 | 0.0 | 0.0 | 0.00 | 0.02 | 0.02 | 89 | 1013.4 |
| 20260830230303 | 76 | 0 | 0.0 | 0.0 | 0.00 | 0.02 | 0.02 | 89 | 1013.6 |
| 20260830225803 | 76 | 0 | 0.0 | 0.0 | 0.00 | 0.02 | 0.02 | 89 | 1013.5 |
| 20260830225305 | 76 | 0 | 0.0 | 0.0 | 0.00 | 0.02 | 0.02 | 89 | 1013.6 |
| 20260830224803 | 76 | 0 | 0.0 | 0.0 | 0.00 | 0.02 | 0.02 | 89 | 1013.5 |
| 20260830224303 | 76 | 0 | 0.0 | 0.0 | 0.00 | 0.02 | 0.02 | 88 | 1013.4 |
| 20260830223803 | 76 | 0 | 0.0 | 0.0 | 0.00 | 0.02 | 0.02 | 88 | 1013.3 |
| 20260830223303 | 76 | 0 | 0.0 | 0.0 | 0.00 | 0.02 | 0.02 | 88 | 1013.3 |
| 20260830222803 | 76 | 0 | 0.0 | 0.0 | 0.00 | 0.02 | 0.02 | 87 | 1013.2 |
| 20260830222306 | 77 | 0 | 0.0 | 0.0 | 0.00 | 0.02 | 0.02 | 87 | 1013.2 |
| 20260830221803 | 77 | 0 | 0.0 | 0.0 | 0.00 | 0.02 | 0.02 | 86 | 1013.2 |
| 20260830221303 | 77 | 0 | 0.0 | 0.0 | 0.00 | 0.02 | 0.02 | 85 | 1013.2 |
| 20260830220803 | 77 | 0 | 0.0 | 0.0 | 0.00 | 0.02 | 0.02 | 85 | 1013.4 |
| 20260830220303 | 77 | 0 | 0.0 | 0.0 | 0.00 | 0.02 | 0.02 | 84 | 1013.3 |
| 20260830215803 | 78 | 0 | 0.0 | 0.0 | 0.00 | 0.02 | 0.02 | 84 | 1013.4 |
| 20260830215305 | 78 | 0 | 0.0 | 0.0 | 0.00 | 0.02 | 0.02 | 84 | 1013.3 |
| 20260830214803 | 78 | 0 | 0.0 | 0.0 | 0.00 | 0.02 | 0.02 | 84 | 1013.4 |
| 20260830214303 | 78 | 0 | 0.0 | 0.0 | 0.00 | 0.02 | 0.02 | 83 | 1013.4 |
| 20260830213803 | 78 | 0 | 0.0 | 0.0 | 0.00 | 0.02 | 0.02 | 83 | 1013.5 |
| 20260830213303 | 78 | 0 | 0.0 | 0.0 | 0.00 | 0.02 | 0.02 | 83 | 1013.4 |
| 20260830212803 | 78 | 0 | 0.0 | 0.0 | 0.00 | 0.02 | 0.02 | 83 | 1013.3 |
| 20260830212305 | 78 | 0 | 0.0 | 0.0 | 0.00 | 0.02 | 0.02 | 82 | 1013.4 |
| 20260830211803 | 79 | 0 | 0.0 | 0.0 | 0.00 | 0.02 | 0.02 | 83 | 1013.5 |
| 20260830211303 | 79 | 0 | 0.0 | 0.0 | 0.00 | 0.02 | 0.02 | 83 | 1013.5 |
| 20260830210803 | 79 | 0 | 0.0 | 0.0 | 0.00 | 0.02 | 0.02 | 83 | 1013.5 |
| 20260830210303 | 79 | 0 | 0.0 | 0.0 | 0.00 | 0.02 | 0.02 | 82 | 1013.6 |
| 20260830205803 | 79 | 0 | 0.0 | 0.0 | 0.00 | 0.02 | 0.02 | 82 | 1013.6 |
| 20260830205305 | 79 | 0 | 0.0 | 0.0 | 0.00 | 0.02 | 0.02 | 82 | 1013.6 |
| 20260830204803 | 78 | 0 | 0.0 | 0.0 | 0.00 | 0.02 | 0.02 | 83 | 1013.7 |
| 20260830204303 | 78 | 0 | 0.0 | 0.0 | 0.00 | 0.02 | 0.02 | 83 | 1013.8 |
| 20260830203803 | 78 | 0 | 0.0 | 0.0 | 0.00 | 0.02 | 0.02 | 83 | 1013.8 |
| 20260830203303 | 78 | 0 | 0.0 | 0.0 | 0.00 | 0.02 | 0.02 | 83 | 1013.7 |
| 20260830202803 | 78 | 0 | 0.0 | 0.0 | 0.00 | 0.02 | 0.02 | 84 | 1013.6 |
| 20260830202305 | 78 | 0 | 0.0 | 0.0 | 0.00 | 0.02 | 0.02 | 85 | 1013.5 |
| 20260830201803 | 78 | 0 | 0.0 | 0.0 | 0.00 | 0.02 | 0.02 | 85 | 1013.5 |
| 20260830201303 | 78 | 0 | 0.0 | 0.0 | 0.00 | 0.02 | 0.02 | 85 | 1013.4 |
| 20260830200803 | 78 | 0 | 0.0 | 0.0 | 0.00 | 0.02 | 0.02 | 84 | 1013.2 |
| 20260830200303 | 79 | 0 | 0.0 | 0.0 | 0.00 | 0.02 | 0.02 | 83 | 1013.1 |
| 20260830195803 | 79 | 0 | 0.0 | 0.0 | 0.00 | 0.02 | 0.02 | 82 | 1013.2 |
| 20260830195305 | 79 | 0 | 0.0 | 0.0 | 0.00 | 0.02 | 0.02 | 81 | 1013.2 |
| 20260830194803 | 80 | 0 | 0.0 | 0.0 | 0.00 | 0.02 | 0.02 | 79 | 1013.2 |
| 20260830194303 | 80 | 0 | 0.0 | 0.0 | 0.00 | 0.02 | 0.02 | 77 | 1013.2 |
| 20260830193803 | 80 | 0 | 0.0 | 0.0 | 0.00 | 0.02 | 0.02 | 76 | 1013.4 |
| 20260830193303 | 80 | 0 | 0.0 | 0.0 | 0.00 | 0.02 | 0.02 | 75 | 1013.4 |
| 20260830192803 | 80 | 0 | 0.0 | 0.0 | 0.00 | 0.02 | 0.02 | 75 | 1013.6 |
| 20260830192305 | 80 | 0 | 0.0 | 0.0 | 0.00 | 0.02 | 0.02 | 74 | 1013.4 |
| 20260830191803 | 80 | 0 | 0.0 | 0.0 | 0.00 | 0.02 | 0.02 | 73 | 1013.4 |
| 20260830191303 | 80 | 0 | 0.0 | 0.0 | 0.00 | 0.02 | 0.02 | 73 | 1013.4 |
| 20260830190803 | 81 | 0 | 0.0 | 0.0 | 0.00 | 0.02 | 0.02 | 74 | 1013.5 |
| 20260830190303 | 81 | 0 | 0.0 | 0.0 | 0.00 | 0.02 | 0.02 | 72 | 1013.5 |
| 20260830185803 | 81 | 0 | 0.0 | 0.0 | 0.00 | 0.02 | 0.02 | 72 | 1013.7 |
| 20260830185306 | 81 | 0 | 0.0 | 0.0 | 0.00 | 0.02 | 0.02 | 72 | 1013.9 |
| 20260830184803 | 81 | 0 | 0.0 | 0.0 | 0.00 | 0.02 | 0.02 | 71 | 1013.5 |
| 20260830184303 | 81 | 0 | 0.0 | 0.0 | 0.00 | 0.02 | 0.02 | 70 | 1013.2 |
| 20260830183803 | 82 | 0 | 0.0 | 0.0 | 0.00 | 0.02 | 0.02 | 71 | 1012.8 |
| 20260830183303 | 82 | 0 | 0.0 | 0.0 | 0.00 | 0.02 | 0.02 | 70 | 1012.5 |
| 20260830182803 | 82 | 0 | 0.0 | 0.0 | 0.00 | 0.02 | 0.02 | 69 | 1012.2 |
| 20260830182306 | 82 | 0 | 0.0 | 0.0 | 0.00 | 0.02 | 0.02 | 69 | 1012.2 |
| 20260830181803 | 83 | 0 | 0.0 | 0.0 | 0.00 | 0.02 | 0.02 | 69 | 1011.9 |
| 20260830181303 | 83 | 0 | 0.0 | 0.0 | 0.00 | 0.02 | 0.02 | 68 | 1011.9 |
| 20260830180803 | 83 | 0 | 0.0 | 0.0 | 0.00 | 0.02 | 0.02 | 69 | 1011.9 |
| 20260830180303 | 83 | 0 | 0.0 | 0.0 | 0.00 | 0.02 | 0.02 | 69 | 1012.1 |
| 20260830175803 | 83 | 0 | 0.0 | 0.0 | 0.00 | 0.02 | 0.02 | 69 | 1012.4 |
| 20260830175305 | 83 | 0 | 0.0 | 0.0 | 0.00 | 0.02 | 0.02 | 69 | 1012.3 |
| 20260830174803 | 83 | 0 | 0.0 | 0.0 | 0.00 | 0.02 | 0.02 | 69 | 1012.2 |
| 20260830174303 | 83 | 0 | 0.0 | 0.0 | 0.00 | 0.02 | 0.02 | 68 | 1012.1 |
| 20260830173803 | 83 | 0 | 0.0 | 0.0 | 0.00 | 0.02 | 0.02 | 68 | 1012.0 |
| 20260830173303 | 83 | 0 | 0.0 | 0.0 | 0.00 | 0.02 | 0.02 | 69 | 1012.0 |
| 20260830172803 | 83 | 0 | 0.0 | 0.0 | 0.00 | 0.02 | 0.02 | 70 | 1012.1 |
| 20260830172306 | 83 | 0 | 0.0 | 0.0 | 0.00 | 0.02 | 0.02 | 69 | 1012.2 |
| 20260830171803 | 83 | 0 | 0.0 | 0.0 | 0.00 | 0.02 | 0.02 | 70 | 1012.4 |
| 20260830171303 | 83 | 0 | 0.0 | 0.0 | 0.00 | 0.02 | 0.02 | 72 | 1012.4 |
| 20260830170803 | 83 | 0 | 0.0 | 0.0 | 0.00 | 0.02 | 0.02 | 73 | 1012.5 |
| 20260830170303 | 82 | 0 | 0.0 | 0.0 | 0.00 | 0.02 | 0.02 | 73 | 1012.5 |
| 20260830165803 | 82 | 0 | 0.0 | 0.0 | 0.00 | 0.02 | 0.02 | 73 | 1012.5 |
| 20260830165305 | 82 | 0 | 0.0 | 0.0 | 0.00 | 0.02 | 0.02 | 73 | 1012.5 |
| 20260830164803 | 82 | 0 | 0.0 | 0.0 | 0.00 | 0.02 | 0.02 | 73 | 1012.5 |
| 20260830164303 | 82 | 0 | 0.0 | 0.0 | 0.00 | 0.02 | 0.02 | 77 | 1012.4 |
| 20260830163803 | 81 | 0 | 0.0 | 0.0 | 0.00 | 0.02 | 0.02 | 76 | 1012.5 |
| 20260830163303 | 80 | 0 | 0.0 | 0.0 | 0.00 | 0.02 | 0.02 | 76 | 1012.6 |
| 20260830162803 | 80 | 0 | 0.0 | 0.0 | 0.00 | 0.02 | 0.02 | 79 | 1012.6 |
| 20260830162306 | 79 | 0 | 0.0 | 0.0 | 0.00 | 0.02 | 0.02 | 81 | 1012.5 |
| 20260830161803 | 79 | 0 | 0.0 | 0.0 | 0.00 | 0.02 | 0.02 | 79 | 1012.5 |
| 20260830161303 | 78 | 0 | 0.0 | 0.0 | 0.00 | 0.02 | 0.02 | 80 | 1012.6 |
| 20260830160803 | 78 | 0 | 0.0 | 0.0 | 0.00 | 0.02 | 0.02 | 82 | 1012.7 |
| 20260830160303 | 77 | 0 | 0.0 | 0.0 | 0.00 | 0.02 | 0.02 | 82 | 1012.7 |
| 20260830155803 | 77 | 0 | 0.0 | 0.0 | 0.00 | 0.02 | 0.02 | 84 | 1012.8 |
| 20260830155306 | 76 | 0 | 0.0 | 0.0 | 0.00 | 0.02 | 0.02 | 86 | 1012.8 |
| 20260830154803 | 76 | 0 | 0.0 | 0.0 | 0.00 | 0.02 | 0.02 | 87 | 1012.8 |
| 20260830154303 | 75 | 0 | 0.0 | 0.0 | 0.00 | 0.02 | 0.02 | 86 | 1012.9 |
| 20260830153803 | 75 | 0 | 0.0 | 0.0 | 0.00 | 0.02 | 0.02 | 87 | 1012.8 |
| 20260830153303 | 75 | 0 | 0.0 | 0.0 | 0.00 | 0.02 | 0.02 | 89 | 1012.8 |
| 20260830152803 | 74 | 0 | 0.0 | 0.0 | 0.00 | 0.02 | 0.02 | 90 | 1012.7 |
| 20260830152305 | 74 | 0 | 0.0 | 0.0 | 0.00 | 0.02 | 0.02 | 90 | 1012.7 |
| 20260830151803 | 73 | 0 | 0.0 | 0.0 | 0.00 | 0.02 | 0.02 | 91 | 1012.7 |
| 20260830151303 | 73 | 0 | 0.0 | 0.0 | 0.00 | 0.02 | 0.02 | 91 | 1012.7 |
| 20260830150803 | 73 | 0 | 0.0 | 0.0 | 0.00 | 0.02 | 0.02 | 92 | 1012.7 |
| 20260830150303 | 72 | 0 | 0.0 | 0.0 | 0.00 | 0.02 | 0.02 | 93 | 1012.7 |
| 20260830145803 | 72 | 0 | 0.0 | 0.0 | 0.00 | 0.02 | 0.02 | 93 | 1012.9 |